Time;durP1;ratioP1;P1;durP2;ratioP2;P2;SDS_P1;SDS_P2;PMS_P1;PMS_P2;Temp;Humidity;BMP_temperature;BMP_pressure;BME280_temperature;BME280_humidity;BME280_pressure;Samples;Min_cycle;Max_cycle;Signal;HPM_P1;HPM_P2
2022/04/27 00:01:31;;;;;;;23.17;16.67;;;23.00;99.90;;;;;;5049595;28;20056;-48
2022/04/27 00:03:57;;;;;;;22.17;17.30;;;23.00;99.90;;;;;;5051672;28;20025;-48
2022/04/27 00:06:23;;;;;;;19.45;15.77;;;22.90;99.90;;;;;;5054952;28;20037;-47
2022/04/27 00:08:49;;;;;;;20.40;15.48;;;22.90;99.90;;;;;;5054836;28;20483;-47
2022/04/27 00:11:15;;;;;;;22.23;15.77;;;22.90;99.90;;;;;;5054928;28;20033;-47
2022/04/27 00:13:41;;;;;;;21.08;15.98;;;23.00;99.90;;;;;;5054613;28;20032;-47
2022/04/27 00:16:07;;;;;;;18.75;14.63;;;22.90;99.90;;;;;;5054725;28;20029;-47
2022/04/27 00:18:33;;;;;;;21.40;16.00;;;22.90;99.90;;;;;;5054562;28;20013;-48
2022/04/27 00:20:59;;;;;;;20.10;15.55;;;22.90;99.90;;;;;;5054488;28;20025;-47
2022/04/27 00:23:26;;;;;;;21.80;16.08;;;22.90;99.90;;;;;;5054662;28;20021;-47
2022/04/27 00:25:52;;;;;;;;;;;22.90;99.90;;;;;;5054745;28;20036;-48
2022/04/27 00:31:02;;;;;;;21.02;15.25;;;22.90;99.90;;;;;;5054337;28;20431;-48
2022/04/27 00:33:28;;;;;;;20.75;14.85;;;22.90;99.90;;;;;;5054402;28;20028;-48
2022/04/27 00:35:54;;;;;;;18.48;14.65;;;22.90;99.90;;;;;;5054514;28;20029;-49
2022/04/27 00:38:20;;;;;;;20.83;15.00;;;22.90;99.90;;;;;;5054171;28;20388;-49
2022/04/27 00:40:46;;;;;;;20.77;14.02;;;22.90;99.90;;;;;;5054259;28;20193;-49
2022/04/27 00:43:15;;;;;;;19.52;14.73;;;22.90;99.90;;;;;;5052919;28;20759;-49
2022/04/27 00:45:41;;;;;;;18.55;13.98;;;22.90;99.90;;;;;;5054032;28;20025;-49
2022/04/27 00:48:09;;;;;;;21.38;14.82;;;22.90;99.90;;;;;;5069458;28;20021;-49
2022/04/27 00:50:35;;;;;;;19.17;15.18;;;22.80;99.90;;;;;;5054291;28;20025;-49
2022/04/27 00:53:01;;;;;;;22.27;15.05;;;22.80;99.90;;;;;;5069449;28;20112;-49
2022/04/27 00:55:30;;;;;;;20.00;14.60;;;22.80;99.90;;;;;;5054235;28;20083;-49
2022/04/27 00:57:56;;;;;;;19.83;14.35;;;22.80;99.90;;;;;;5054099;28;20063;-49
2022/04/27 01:00:22;;;;;;;20.70;14.40;;;22.80;99.90;;;;;;5076865;22;20056;-51
2022/04/27 01:02:48;;;;;;;17.90;13.75;;;22.80;99.90;;;;;;5073722;28;20113;-51
2022/04/27 01:05:14;;;;;;;18.50;13.18;;;22.80;99.90;;;;;;5073477;28;20075;-51
2022/04/27 01:07:41;;;;;;;17.75;13.75;;;22.80;99.90;;;;;;5073611;28;20024;-51
2022/04/27 01:10:08;;;;;;;16.88;13.30;;;22.80;99.90;;;;;;5073744;28;20038;-51
2022/04/27 01:12:35;;;;;;;19.90;14.13;;;22.80;99.90;;;;;;5073628;28;20040;-52
2022/04/27 01:15:02;;;;;;;18.02;14.07;;;22.80;99.90;;;;;;5073307;28;20030;-52
2022/04/27 01:17:27;;;;;;;17.80;14.23;;;22.80;99.90;;;;;;5073232;28;20094;-51
2022/04/27 01:19:53;;;;;;;18.10;13.63;;;22.80;99.90;;;;;;5073395;28;20024;-51
2022/04/27 01:22:20;;;;;;;18.48;14.07;;;22.80;99.90;;;;;;5073340;28;20025;-51
2022/04/27 01:24:46;;;;;;;19.58;13.50;;;22.80;99.90;;;;;;5073370;28;20035;-51
2022/04/27 01:27:11;;;;;;;18.83;13.60;;;22.80;99.90;;;;;;5073309;28;20024;-52
2022/04/27 01:29:37;;;;;;;19.92;14.02;;;22.80;99.90;;;;;;5073248;28;20020;-52
2022/04/27 01:32:04;;;;;;;16.75;13.68;;;22.80;99.90;;;;;;5072979;28;20055;-52
2022/04/27 01:34:30;;;;;;;16.85;13.52;;;22.80;99.90;;;;;;5073117;28;20023;-51
2022/04/27 01:37:59;;;;;;;18.70;13.75;;;22.80;99.90;;;;;;5073038;28;20021;-52
2022/04/27 01:39:42;;;;;;;17.40;13.20;;;22.80;99.90;;;;;;5072800;28;20526;-52
2022/04/27 01:42:27;;;;;;;18.13;13.18;;;22.80;99.90;;;;;;5073201;28;20020;-51
2022/04/27 01:44:53;;;;;;;16.55;12.50;;;22.70;99.90;;;;;;5072895;28;20032;-51
2022/04/27 01:47:18;;;;;;;18.38;12.88;;;22.70;99.90;;;;;;5073014;28;20104;-52
2022/04/27 01:49:44;;;;;;;18.38;13.10;;;22.70;99.90;;;;;;5072933;28;20025;-51
2022/04/27 01:54:54;;;;;;;16.95;12.80;;;22.70;99.90;;;;;;5073197;28;20028;-52
2022/04/27 01:57:20;;;;;;;18.75;13.35;;;22.70;99.90;;;;;;5072710;28;20024;-52
2022/04/27 01:59:46;;;;;;;17.63;12.43;;;22.70;99.90;;;;;;5085893;22;20088;-48
2022/04/27 02:02:30;;;;;;;17.15;12.48;;;22.70;99.90;;;;;;5092810;28;20047;-47
2022/04/27 02:04:56;;;;;;;17.88;13.02;;;22.70;99.90;;;;;;5092700;28;20028;-47
2022/04/27 02:07:22;;;;;;;16.17;12.93;;;22.70;99.90;;;;;;5092932;28;20028;-51
2022/04/27 02:09:48;;;;;;;16.23;12.40;;;22.70;99.90;;;;;;5092843;28;20027;-50
2022/04/27 02:12:14;;;;;;;16.55;12.88;;;22.70;99.90;;;;;;5091669;28;20024;-49
2022/04/27 02:14:39;;;;;;;15.75;12.93;;;22.70;99.90;;;;;;5092602;28;20024;-48
2022/04/27 02:17:05;;;;;;;17.60;13.10;;;22.70;99.90;;;;;;5092464;28;20035;-49
2022/04/27 02:19:32;;;;;;;16.27;12.68;;;22.70;99.90;;;;;;5092461;28;20353;-47
2022/04/27 02:21:58;;;;;;;17.17;11.68;;;22.70;99.90;;;;;;5092542;28;20395;-49
2022/04/27 02:24:25;;;;;;;16.58;11.60;;;22.70;99.90;;;;;;5092494;28;20495;-49
2022/04/27 02:26:52;;;;;;;18.27;13.25;;;22.70;99.90;;;;;;5091898;28;20047;-48
2022/04/27 02:29:18;;;;;;;18.40;12.33;;;22.70;99.90;;;;;;5091944;28;20036;-48
2022/04/27 02:31:44;;;;;;;16.13;12.57;;;22.70;99.90;;;;;;5092248;28;20260;-48
2022/04/27 02:34:10;;;;;;;16.00;12.50;;;22.70;99.90;;;;;;5092389;28;20028;-48
2022/04/27 02:36:36;;;;;;;17.02;12.38;;;22.70;99.90;;;;;;5092271;28;20091;-49
2022/04/27 02:39:02;;;;;;;15.25;11.85;;;22.60;99.90;;;;;;5092219;28;20107;-48
2022/04/27 02:41:28;;;;;;;17.33;12.82;;;22.60;99.90;;;;;;5092219;28;20020;-48
2022/04/27 02:43:55;;;;;;;17.30;12.05;;;22.70;99.90;;;;;;5092110;28;20498;-48
2022/04/27 02:46:21;;;;;;;17.38;12.63;;;22.70;99.90;;;;;;5091910;28;20047;-48
2022/04/27 02:51:51;;;;;;;17.20;11.70;;;22.70;99.90;;;;;;5092194;28;20078;-48
2022/04/27 02:54:18;;;;;;;18.42;12.73;;;22.70;99.90;;;;;;5092035;28;20047;-48
2022/04/27 02:56:44;;;;;;;16.50;12.60;;;22.60;99.90;;;;;;5091906;28;20082;-48
2022/04/27 02:59:10;;;;;;;17.00;12.15;;;22.60;99.90;;;;;;5091798;28;20039;-48
2022/04/27 03:01:38;;;;;;;16.85;12.10;;;22.60;99.90;;;;;;5092212;28;20405;-48
2022/04/27 03:04:04;;;;;;;17.77;13.07;;;22.60;99.90;;;;;;5091677;28;20078;-47
2022/04/27 03:06:30;;;;;;;16.73;12.65;;;22.60;99.90;;;;;;5091808;28;20032;-48
2022/04/27 03:08:56;;;;;;;14.93;11.48;;;22.60;99.90;;;;;;5091738;28;20089;-48
2022/04/27 03:11:22;;;;;;;16.48;12.27;;;22.60;99.90;;;;;;5091624;28;20372;-48
2022/04/27 03:13:48;;;;;;;17.38;11.63;;;22.60;99.90;;;;;;5091727;28;20499;-48
2022/04/27 03:16:13;;;;;;;15.05;11.48;;;22.60;99.90;;;;;;5091688;28;20123;-48
2022/04/27 03:18:39;;;;;;;15.30;11.75;;;22.60;99.90;;;;;;5090239;28;20016;-47
2022/04/27 03:21:05;;;;;;;14.60;10.63;;;22.60;99.90;;;;;;5091608;28;20150;-48
2022/04/27 03:23:31;;;;;;;17.80;12.27;;;22.60;99.90;;;;;;5091646;28;20028;-47
2022/04/27 03:25:56;;;;;;;16.38;11.02;;;22.60;99.90;;;;;;5091464;28;20036;-47
2022/04/27 03:28:22;;;;;;;16.48;11.63;;;22.60;99.90;;;;;;5090086;28;20047;-47
2022/04/27 03:30:49;;;;;;;16.88;11.98;;;22.60;99.90;;;;;;5091641;28;20090;-49
2022/04/27 03:33:18;;;;;;;16.35;11.35;;;22.60;99.90;;;;;;5090232;28;20020;-49
2022/04/27 03:35:44;;;;;;;16.23;11.02;;;22.60;99.90;;;;;;5091237;28;20487;-49
2022/04/27 03:38:10;;;;;;;14.32;10.63;;;22.60;99.90;;;;;;5091243;28;20460;-50
2022/04/27 03:40:39;;;;;;;15.88;11.25;;;22.60;99.90;;;;;;5090881;28;20061;-49
2022/04/27 03:43:05;;;;;;;16.90;11.65;;;22.60;99.90;;;;;;5091131;28;20169;-48
2022/04/27 03:45:31;;;;;;;14.88;11.18;;;22.60;99.90;;;;;;5091303;28;20444;-49
2022/04/27 03:48:15;;;;;;;16.13;11.85;;;22.60;99.90;;;;;;5091301;28;20024;-50
2022/04/27 03:50:41;;;;;;;16.20;11.68;;;22.60;99.90;;;;;;5091116;28;20532;-48
2022/04/27 03:53:07;;;;;;;17.10;12.02;;;22.60;99.90;;;;;;5091055;28;20028;-48
2022/04/27 03:55:35;;;;;;;14.93;11.13;;;22.60;99.90;;;;;;5091217;28;20024;-48
2022/04/27 03:58:05;;;;;;;16.02;12.10;;;22.60;99.90;;;;;;5091148;28;20073;-48
2022/04/27 04:00:31;;;;;;;14.27;10.55;;;22.60;99.90;;;;;;5102270;22;20048;-51
2022/04/27 04:03:04;;;;;;;14.50;10.82;;;22.60;99.90;;;;;;5090967;28;20057;-52
2022/04/27 04:05:30;;;;;;;15.90;11.40;;;22.60;99.90;;;;;;5090865;28;20056;-52
2022/04/27 04:07:57;;;;;;;15.57;11.43;;;22.60;99.90;;;;;;5072659;28;20435;-51
2022/04/27 04:10:23;;;;;;;15.13;11.30;;;22.60;99.90;;;;;;5073013;28;20020;-52
2022/04/27 04:12:49;;;;;;;14.52;10.82;;;22.50;99.90;;;;;;5090976;28;20070;-52
2022/04/27 04:15:15;;;;;;;15.07;11.35;;;22.60;99.90;;;;;;5090899;28;20024;-51
2022/04/27 04:17:44;;;;;;;13.02;10.00;;;22.60;99.90;;;;;;5090898;28;20020;-51
2022/04/27 04:20:17;;;;;;;16.25;11.43;;;22.60;99.90;;;;;;5090986;28;20075;-51
2022/04/27 04:22:44;;;;;;;13.82;9.93;;;22.50;99.90;;;;;;5090854;28;20424;-52
2022/04/27 04:28:31;;;;;;;15.10;10.10;;;22.60;99.90;;;;;;5091260;28;20085;-51
2022/04/27 04:31:03;;;;;;;15.40;10.95;;;22.60;99.90;;;;;;5090658;28;20383;-51
2022/04/27 04:33:29;;;;;;;15.38;11.48;;;22.50;99.90;;;;;;5090612;28;20024;-51
2022/04/27 04:35:56;;;;;;;14.13;10.52;;;22.60;99.90;;;;;;5090908;28;20036;-52
2022/04/27 04:38:22;;;;;;;16.23;11.20;;;22.50;99.90;;;;;;5090822;28;20100;-52
2022/04/27 04:40:48;;;;;;;15.52;11.45;;;22.50;99.90;;;;;;5090613;28;20107;-51
2022/04/27 04:43:14;;;;;;;15.93;11.30;;;22.50;99.90;;;;;;5090662;28;20435;-51
2022/04/27 04:45:59;;;;;;;14.27;10.80;;;22.50;99.90;;;;;;5090759;28;20039;-52
2022/04/27 04:48:24;;;;;;;16.02;11.35;;;22.50;99.90;;;;;;5090626;28;20078;-51
2022/04/27 04:50:50;;;;;;;14.93;11.48;;;22.50;99.90;;;;;;5091183;28;20016;-51
2022/04/27 04:53:19;;;;;;;16.55;11.27;;;22.50;99.90;;;;;;5093977;28;21116;-52
2022/04/27 04:55:44;;;;;;;16.20;11.98;;;22.50;99.90;;;;;;5094048;28;20031;-51
2022/04/27 04:58:29;;;;;;;17.77;11.07;;;22.50;99.90;;;;;;5093967;28;20472;-51
2022/04/27 05:00:55;;;;;;;15.25;11.07;;;22.50;99.90;;;;;;5093982;28;20056;-51
2022/04/27 05:03:21;;;;;;;16.98;11.88;;;22.50;99.90;;;;;;5093823;28;20025;-52
2022/04/27 05:05:46;;;;;;;17.15;11.90;;;22.50;99.90;;;;;;5079963;28;20498;-52
2022/04/27 05:08:12;;;;;;;19.88;12.07;;;22.50;99.90;;;;;;5082827;28;20063;-51
2022/04/27 05:10:38;;;;;;;19.65;11.50;;;22.50;99.90;;;;;;5092257;28;20506;-52
2022/04/27 05:13:04;;;;;;;17.63;11.20;;;22.50;99.90;;;;;;5093639;28;20027;-51
2022/04/27 05:15:30;;;;;;;20.08;12.30;;;22.50;99.90;;;;;;5093644;28;20028;-51
2022/04/27 05:17:56;;;;;;;16.45;11.20;;;22.50;99.90;;;;;;5075619;28;20024;-51
2022/04/27 05:20:22;;;;;;;18.92;11.70;;;22.50;99.90;;;;;;5086214;28;20460;-52
2022/04/27 05:22:48;;;;;;;18.67;12.18;;;22.50;99.90;;;;;;5086379;28;20123;-51
2022/04/27 05:25:14;;;;;;;16.52;12.27;;;22.50;99.90;;;;;;5088338;28;20352;-51
2022/04/27 05:27:40;;;;;;;16.75;12.90;;;22.50;99.90;;;;;;5087251;28;20424;-51
2022/04/27 05:32:51;;;;;;;15.85;11.32;;;22.50;99.90;;;;;;5088615;28;20031;-51
2022/04/27 05:35:17;;;;;;;17.80;12.48;;;22.50;99.90;;;;;;5093249;28;20035;-51
2022/04/27 05:37:43;;;;;;;16.75;11.60;;;22.50;99.90;;;;;;5088716;28;20020;-51
2022/04/27 05:40:10;;;;;;;18.95;13.48;;;22.50;99.90;;;;;;5089534;28;20099;-50
2022/04/27 05:42:36;;;;;;;23.10;12.82;;;22.50;99.90;;;;;;5092652;28;20028;-51
2022/04/27 05:45:03;;;;;;;19.45;12.52;;;22.50;99.90;;;;;;5092262;28;20480;-52
2022/04/27 05:47:48;;;;;;;20.83;13.20;;;22.50;99.90;;;;;;5092179;28;20051;-51
2022/04/27 05:50:13;;;;;;;21.38;12.13;;;22.50;99.90;;;;;;5072976;28;20035;-52
2022/04/27 05:52:50;;;;;;;21.00;13.85;;;22.50;99.90;;;;;;5091751;28;20428;-51
2022/04/27 05:55:16;;;;;;;20.23;13.00;;;22.50;99.90;;;;;;5091025;28;20491;-51
2022/04/27 05:57:41;;;;;;;19.50;13.75;;;22.50;99.90;;;;;;5091487;28;20328;-51
2022/04/27 06:00:08;;;;;;;20.35;12.38;;;22.40;99.90;;;;;;5091437;28;20174;-51
2022/04/27 06:02:34;;;;;;;23.17;13.05;;;22.40;99.90;;;;;;5091897;28;20020;-52
2022/04/27 06:05:00;;;;;;;20.20;12.70;;;22.50;99.90;;;;;;5092688;28;20028;-51
2022/04/27 06:07:26;;;;;;;19.23;13.13;;;22.50;99.90;;;;;;5092828;28;20027;-51
2022/04/27 06:09:51;;;;;;;17.40;11.30;;;22.50;99.90;;;;;;5092487;28;20036;-51
2022/04/27 06:12:18;;;;;;;18.25;12.85;;;22.50;99.90;;;;;;5092476;28;20107;-51
2022/04/27 06:14:44;;;;;;;20.20;13.27;;;22.50;99.90;;;;;;5092536;28;20453;-51
2022/04/27 06:17:10;;;;;;;20.35;12.32;;;22.50;99.90;;;;;;5092460;28;20028;-51
2022/04/27 06:19:35;;;;;;;18.75;12.52;;;22.50;99.90;;;;;;5092305;28;20104;-51
2022/04/27 06:22:01;;;;;;;17.42;12.68;;;22.50;99.90;;;;;;5092169;28;20027;-51
2022/04/27 06:24:29;;;;;;;19.35;13.85;;;22.50;99.90;;;;;;5092550;28;20016;-51
2022/04/27 06:26:55;;;;;;;;;;;22.40;99.90;;;;;;5092790;28;20394;-50
2022/04/27 06:29:20;;;;;;;17.80;12.73;;;22.50;99.90;;;;;;5092288;28;19911;-51
2022/04/27 06:31:46;;;;;;;21.88;12.82;;;22.40;99.90;;;;;;5092196;28;20429;-51
2022/04/27 06:34:12;;;;;;;22.52;14.07;;;22.50;99.90;;;;;;5092173;28;20103;-51
2022/04/27 06:36:39;;;;;;;22.13;13.32;;;22.40;99.90;;;;;;5091864;28;20112;-51
2022/04/27 06:39:07;;;;;;;19.52;12.68;;;22.50;99.90;;;;;;5091702;28;20070;-51
2022/04/27 06:41:33;;;;;;;20.48;13.05;;;22.50;99.90;;;;;;5091704;28;20024;-51
2022/04/27 06:43:59;;;;;;;18.95;12.07;;;22.50;99.90;;;;;;5091955;28;20077;-51
2022/04/27 06:46:24;;;;;;;17.60;12.85;;;22.50;99.90;;;;;;5091764;28;20048;-51
2022/04/27 06:48:50;;;;;;;18.45;13.20;;;22.50;99.90;;;;;;5091709;28;20020;-51
2022/04/27 06:51:18;;;;;;;17.10;12.55;;;22.50;99.90;;;;;;5091629;28;20379;-51
2022/04/27 06:53:45;;;;;;;22.05;13.73;;;22.50;99.90;;;;;;5091572;28;20190;-52
2022/04/27 06:56:11;;;;;;;20.65;12.43;;;22.50;99.90;;;;;;5091736;28;20357;-52
2022/04/27 06:58:36;;;;;;;20.77;12.52;;;22.50;99.90;;;;;;5090658;28;20039;-52
2022/04/27 07:01:04;;;;;;;16.98;12.18;;;22.50;99.90;;;;;;5090358;28;20406;-51
2022/04/27 07:03:33;;;;;;;19.25;13.57;;;22.50;99.90;;;;;;5091834;28;20174;-52
2022/04/27 07:06:00;;;;;;;18.30;12.80;;;22.50;99.90;;;;;;5091555;28;20114;-52
2022/04/27 07:08:27;;;;;;;18.75;13.35;;;22.50;99.90;;;;;;5091381;28;20031;-51
2022/04/27 07:10:52;;;;;;;18.30;12.25;;;22.50;99.90;;;;;;5091536;28;20028;-51
2022/04/27 07:13:18;;;;;;;18.27;12.85;;;22.50;99.90;;;;;;5090949;28;20111;-52
2022/04/27 07:15:44;;;;;;;19.45;12.82;;;22.60;99.90;;;;;;5091466;28;20064;-51
2022/04/27 07:18:10;;;;;;;18.52;12.13;;;22.50;99.90;;;;;;5091532;28;20028;-52
2022/04/27 07:20:37;;;;;;;17.52;13.02;;;22.60;99.90;;;;;;5091515;28;20028;-51
2022/04/27 07:23:02;;;;;;;19.73;12.80;;;22.60;99.90;;;;;;5091579;28;20020;-52
2022/04/27 07:25:28;;;;;;;18.40;12.50;;;22.60;99.90;;;;;;5091207;28;20273;-51
2022/04/27 07:27:54;;;;;;;18.15;12.63;;;22.60;99.90;;;;;;5091409;28;20024;-51
2022/04/27 07:30:21;;;;;;;16.95;12.05;;;22.60;99.90;;;;;;5091138;28;20103;-51
2022/04/27 07:32:47;;;;;;;19.07;12.83;;;22.60;99.90;;;;;;5091407;28;20047;-51
2022/04/27 07:35:13;;;;;;;16.40;11.85;;;22.60;99.90;;;;;;5091218;28;20030;-51
2022/04/27 07:37:39;;;;;;;17.13;12.40;;;22.60;99.90;;;;;;5091069;28;20171;-51
2022/04/27 07:40:10;;;;;;;16.23;11.93;;;22.60;99.90;;;;;;5091438;28;20059;-51
2022/04/27 07:42:36;;;;;;;19.13;12.65;;;22.60;99.90;;;;;;5091181;28;20024;-51
2022/04/27 07:45:03;;;;;;;17.25;12.15;;;22.70;99.90;;;;;;5091202;28;20486;-53
2022/04/27 07:47:44;;;;;;;17.48;12.38;;;22.70;99.90;;;;;;5091090;28;20076;-51
2022/04/27 07:50:15;;;;;;;17.58;12.35;;;22.70;99.90;;;;;;5091016;28;20032;-51
2022/04/27 07:52:41;;;;;;;18.90;12.23;;;22.70;99.90;;;;;;5090960;28;20483;-51
2022/04/27 07:55:08;;;;;;;18.08;12.63;;;22.70;99.90;;;;;;5091283;28;20059;-51
2022/04/27 07:57:35;;;;;;;20.02;12.50;;;22.70;99.90;;;;;;5073221;28;20031;-51
2022/04/27 08:00:03;;;;;;;17.42;12.10;;;22.70;99.90;;;;;;5090915;28;20044;-52
2022/04/27 08:02:29;;;;;;;16.70;12.27;;;22.70;99.90;;;;;;5090896;28;20035;-52
2022/04/27 08:04:55;;;;;;;14.70;11.02;;;22.80;99.90;;;;;;5089810;28;20020;-51
2022/04/27 08:07:21;;;;;;;16.77;11.38;;;22.80;99.90;;;;;;5090991;28;20089;-51
2022/04/27 08:09:47;;;;;;;16.50;10.95;;;22.80;99.90;;;;;;5090778;28;20028;-51
2022/04/27 08:12:12;;;;;;;15.02;10.98;;;22.80;99.90;;;;;;5090744;28;20021;-51
2022/04/27 08:14:38;;;;;;;17.63;11.73;;;22.80;99.90;;;;;;5090806;28;20099;-51
2022/04/27 08:17:24;;;;;;;16.30;11.15;;;22.80;99.90;;;;;;5091098;28;20016;-51
2022/04/27 08:21:13;;;;;;;16.38;11.10;;;22.80;99.90;;;;;;5090747;28;20104;-51
2022/04/27 08:22:35;;;;;;;14.23;10.82;;;22.80;99.90;;;;;;5090876;28;20024;-51
2022/04/27 08:25:01;;;;;;;17.65;10.82;;;22.80;99.90;;;;;;5073492;28;20498;-51
2022/04/27 08:27:26;;;;;;;14.95;10.00;;;22.90;99.90;;;;;;5094514;28;20396;-51
2022/04/27 08:29:52;;;;;;;14.57;10.55;;;22.80;99.90;;;;;;5094598;28;20547;-51
2022/04/27 08:32:18;;;;;;;13.77;10.48;;;22.90;99.90;;;;;;5093279;28;20483;-52
2022/04/27 08:34:43;;;;;;;13.43;10.02;;;22.80;99.90;;;;;;5094582;28;20544;-51
2022/04/27 08:37:09;;;;;;;19.52;10.27;;;22.90;99.90;;;;;;5094434;28;20145;-51
2022/04/27 08:39:35;;;;;;;14.60;9.88;;;22.90;99.90;;;;;;5094725;28;20028;-51
2022/04/27 08:42:01;;;;;;;13.68;9.65;;;22.90;99.90;;;;;;5094176;28;20062;-53
2022/04/27 08:44:27;;;;;;;13.90;9.82;;;22.90;99.90;;;;;;5094309;28;20103;-51
2022/04/27 08:46:54;;;;;;;14.68;9.95;;;22.90;99.90;;;;;;5094260;28;20032;-51
2022/04/27 08:49:20;;;;;;;13.73;9.65;;;22.90;99.90;;;;;;5094231;28;20070;-51
2022/04/27 08:51:46;;;;;;;15.30;10.30;;;22.90;99.90;;;;;;5094163;28;20028;-51
2022/04/27 08:54:33;;;;;;;13.95;9.00;;;22.90;99.90;;;;;;5075944;28;20103;-51
2022/04/27 08:56:59;;;;;;;;;;;22.90;99.90;;;;;;5094472;28;20059;-51
2022/04/27 08:59:25;;;;;;;12.48;8.85;;;22.90;99.90;;;;;;5093970;28;19904;-51
2022/04/27 09:01:50;;;;;;;15.95;8.00;;;22.90;99.90;;;;;;5093778;28;20273;-51
2022/04/27 09:04:18;;;;;;;11.65;7.80;;;22.90;99.90;;;;;;5093752;28;20023;-51
2022/04/27 09:06:46;;;;;;;11.25;8.38;;;22.90;99.90;;;;;;5075642;28;20510;-50
2022/04/27 09:09:33;;;;;;;10.43;7.80;;;23.00;99.90;;;;;;5093845;28;20039;-50
2022/04/27 09:12:00;;;;;;;13.10;8.18;;;23.00;99.90;;;;;;5093728;28;20028;-50
2022/04/27 09:14:37;;;;;;;13.63;8.40;;;23.00;99.90;;;;;;5075661;28;20065;-50
2022/04/27 09:22:51;;;;;;;11.65;8.05;;;23.00;99.90;;;;;;5094007;28;20072;-51
2022/04/27 09:25:31;;;;;;;9.90;6.97;;;23.00;99.90;;;;;;5093506;28;20360;-51
2022/04/27 09:27:56;;;;;;;11.00;7.22;;;23.00;99.90;;;;;;5093571;28;20077;-51
2022/04/27 09:30:26;;;;;;;10.13;6.97;;;23.00;99.90;;;;;;5093425;28;20383;-51
2022/04/27 09:32:52;;;;;;;10.10;6.90;;;23.00;99.90;;;;;;5093581;28;20024;-51
2022/04/27 09:35:37;;;;;;;11.18;7.32;;;23.00;99.90;;;;;;5093439;28;20043;-51
2022/04/27 09:38:18;;;;;;;11.02;6.35;;;23.00;99.90;;;;;;5092799;28;20027;-51
2022/04/27 09:40:49;;;;;;;9.25;6.00;;;23.10;99.90;;;;;;5093356;28;20104;-51
2022/04/27 09:43:16;;;;;;;9.07;6.18;;;23.10;99.90;;;;;;5093190;28;20418;-51
2022/04/27 09:45:45;;;;;;;10.05;6.43;;;23.10;99.90;;;;;;5093272;28;20028;-50
2022/04/27 09:48:20;;;;;;;10.30;6.63;;;23.10;99.90;;;;;;5093410;28;20031;-50
2022/04/27 09:50:55;;;;;;;11.32;6.35;;;23.10;99.90;;;;;;5092989;28;20032;-51
2022/04/27 09:53:21;;;;;;;10.45;6.75;;;23.10;99.90;;;;;;5074704;28;20118;-51
2022/04/27 09:55:52;;;;;;;8.07;5.70;;;23.20;99.90;;;;;;5092929;28;20024;-51
2022/04/27 09:58:22;;;;;;;7.55;5.35;;;23.20;99.90;;;;;;5092767;28;20016;-51
2022/04/27 10:00:52;;;;;;;8.65;5.57;;;23.30;99.90;;;;;;5092638;28;20171;-51
2022/04/27 10:03:19;;;;;;;9.13;5.95;;;23.30;99.90;;;;;;5092721;28;20483;-52
2022/04/27 10:05:46;;;;;;;10.55;5.95;;;23.30;99.90;;;;;;5092673;28;20483;-51
2022/04/27 10:08:13;;;;;;;6.30;5.30;;;23.30;99.90;;;;;;5092933;28;20035;-51
2022/04/27 10:10:41;;;;;;;6.80;5.38;;;23.30;99.90;;;;;;5092826;28;20503;-51
2022/04/27 10:13:11;;;;;;;8.77;5.45;;;23.40;99.90;;;;;;5092559;28;20035;-51
2022/04/27 10:15:48;;;;;;;7.47;5.03;;;23.30;99.90;;;;;;5092602;28;20069;-51
2022/04/27 10:18:16;;;;;;;9.23;5.95;;;23.30;99.90;;;;;;5092521;28;20024;-51
2022/04/27 10:20:43;;;;;;;7.72;4.75;;;23.30;99.90;;;;;;5092540;28;20036;-51
2022/04/27 10:23:15;;;;;;;8.38;5.40;;;23.30;99.90;;;;;;5092609;28;20020;-51
2022/04/27 10:25:41;;;;;;;11.40;5.57;;;23.30;99.90;;;;;;5092253;28;20493;-50
2022/04/27 10:28:24;;;;;;;11.90;5.63;;;23.30;99.90;;;;;;5092385;28;20051;-51
2022/04/27 10:30:51;;;;;;;9.02;4.85;;;23.30;99.90;;;;;;5092315;28;20058;-51
2022/04/27 10:33:39;;;;;;;10.18;5.30;;;23.30;99.90;;;;;;5092211;28;20020;-50
2022/04/27 10:36:22;;;;;;;7.57;4.63;;;23.40;99.90;;;;;;5092239;28;20024;-51
2022/04/27 10:39:25;;;;;;;10.50;7.05;;;23.40;99.90;;;;;;5092228;28;20016;-51
2022/04/27 10:42:03;;;;;;;14.35;7.75;;;23.40;99.90;;;;;;5092066;28;20020;-51
2022/04/27 10:44:47;;;;;;;12.65;8.40;;;23.40;99.90;;;;;;5091856;28;20035;-51
2022/04/27 10:47:20;;;;;;;10.07;7.03;;;23.40;99.90;;;;;;5092018;28;20445;-51
2022/04/27 10:49:47;;;;;;;11.40;7.65;;;23.40;99.90;;;;;;5090822;28;20034;-51
2022/04/27 10:52:14;;;;;;;11.38;6.50;;;23.40;99.90;;;;;;5091972;28;20024;-53
2022/04/27 10:54:41;;;;;;;10.10;7.05;;;23.50;99.90;;;;;;5091817;28;20107;-51
2022/04/27 10:57:16;;;;;;;11.32;7.30;;;23.50;99.90;;;;;;5091679;28;20060;-51
2022/04/27 10:59:49;;;;;;;13.07;7.72;;;23.50;99.90;;;;;;5091773;28;20028;-51
2022/04/27 11:02:34;;;;;;;12.25;8.45;;;23.60;99.90;;;;;;5091841;28;20479;-51
2022/04/27 11:05:05;;;;;;;10.80;7.65;;;23.60;99.90;;;;;;5090821;28;20411;-50
2022/04/27 11:07:53;;;;;;;11.95;7.97;;;23.60;99.90;;;;;;5091630;28;20185;-50
2022/04/27 11:13:08;;;;;;;14.02;8.23;;;23.70;99.90;;;;;;5091824;28;20421;-50
2022/04/27 11:15:34;;;;;;;14.45;9.02;;;23.70;99.90;;;;;;5091537;28;20487;-50
2022/04/27 11:18:02;;;;;;;17.73;9.13;;;23.70;99.90;;;;;;5091495;28;20091;-51
2022/04/27 11:23:23;;;;;;;13.23;8.65;;;23.80;99.90;;;;;;5091802;28;20035;-50
2022/04/27 11:25:52;;;;;;;15.00;9.38;;;23.80;99.90;;;;;;5091244;28;20040;-50
2022/04/27 11:28:18;;;;;;;14.45;8.52;;;23.90;99.90;;;;;;5091292;28;20073;-52
2022/04/27 11:30:45;;;;;;;12.45;8.52;;;23.90;99.90;;;;;;5091476;28;20051;-51
2022/04/27 11:33:11;;;;;;;15.70;8.50;;;23.90;99.90;;;;;;5091188;28;20028;-51
2022/04/27 11:35:45;;;;;;;13.75;9.30;;;23.90;99.90;;;;;;5091253;28;20265;-52
2022/04/27 11:38:16;;;;;;;14.52;8.85;;;23.90;99.90;;;;;;5091419;28;20066;-52
2022/04/27 11:40:41;;;;;;;11.85;8.57;;;23.90;99.90;;;;;;5091226;28;20063;-51
2022/04/27 11:43:07;;;;;;;10.98;8.25;;;23.90;99.90;;;;;;5091233;28;20534;-51
2022/04/27 11:45:51;;;;;;;13.63;9.07;;;24.00;99.90;;;;;;5090987;28;20036;-51
2022/04/27 11:48:18;;;;;;;11.30;8.07;;;23.90;99.90;;;;;;5091277;28;20020;-51
2022/04/27 11:50:44;;;;;;;11.13;8.02;;;24.00;99.90;;;;;;5091382;28;20105;-51
2022/04/27 11:53:11;;;;;;;14.23;8.77;;;24.00;99.90;;;;;;5090955;28;20016;-51
2022/04/27 11:55:38;;;;;;;9.37;7.87;;;24.00;99.90;;;;;;5091119;28;20024;-51
2022/04/27 11:58:05;;;;;;;11.43;8.18;;;24.00;99.90;;;;;;5091243;28;20684;-50
2022/04/27 12:00:53;;;;;;;15.65;9.13;;;24.00;99.90;;;;;;5092889;28;20047;-51
2022/04/27 12:03:19;;;;;;;12.85;7.72;;;24.00;99.90;;;;;;5095069;28;20028;-51
2022/04/27 12:05:50;;;;;;;10.48;7.85;;;24.00;99.90;;;;;;5076892;28;20039;-51
2022/04/27 12:08:19;;;;;;;11.13;7.45;;;24.00;99.90;;;;;;5077128;28;20035;-50
2022/04/27 12:10:46;;;;;;;11.85;8.30;;;24.10;99.90;;;;;;5095227;28;20036;-51
2022/04/27 12:13:14;;;;;;;11.35;7.65;;;24.00;99.90;;;;;;5094993;28;20309;-50
2022/04/27 12:15:42;;;;;;;12.00;7.93;;;24.10;99.90;;;;;;5094825;28;20141;-51
2022/04/27 12:18:17;;;;;;;10.68;7.72;;;24.00;99.90;;;;;;5094693;28;20375;-51
2022/04/27 12:20:45;;;;;;;10.85;7.72;;;24.00;99.90;;;;;;5094452;28;20028;-50
2022/04/27 12:23:23;;;;;;;15.05;7.55;;;24.10;99.90;;;;;;5094509;28;20020;-51
2022/04/27 12:25:59;;;;;;;10.48;7.43;;;24.10;99.90;;;;;;5094559;28;20032;-51
2022/04/27 12:28:32;;;;;;;10.98;7.97;;;24.10;99.90;;;;;;5094603;28;20028;-51
2022/04/27 12:31:20;;;;;;;13.32;8.45;;;24.10;99.90;;;;;;5094504;28;20020;-51
2022/04/27 12:33:50;;;;;;;9.95;7.50;;;24.10;99.90;;;;;;5094734;28;20043;-51
2022/04/27 12:39:24;;;;;;;10.27;7.25;;;24.10;99.90;;;;;;5094426;28;20444;-52
2022/04/27 12:41:52;;;;;;;10.88;7.10;;;24.10;99.90;;;;;;5094478;28;20528;-52
2022/04/27 12:44:28;;;;;;;11.00;7.78;;;24.10;99.90;;;;;;5094454;28;20039;-51
2022/04/27 12:47:00;;;;;;;10.90;6.53;;;24.00;99.90;;;;;;5094044;28;20043;-52
2022/04/27 12:49:47;;;;;;;11.00;7.07;;;24.00;99.90;;;;;;5094128;28;20487;-51
2022/04/27 12:52:23;;;;;;;9.45;6.75;;;24.00;99.90;;;;;;5094362;28;20030;-51
2022/04/27 12:55:00;;;;;;;9.02;6.93;;;24.00;99.90;;;;;;5094506;28;20028;-51
2022/04/27 12:57:25;;;;;;;8.60;6.70;;;24.00;99.90;;;;;;5094228;28;20098;-51
2022/04/27 13:00:00;;;;;;;19.90;7.13;;;24.00;99.90;;;;;;5094356;28;20063;-50
2022/04/27 13:02:26;;;;;;;10.88;6.13;;;24.00;99.90;;;;;;5093921;28;20036;-51
2022/04/27 13:04:52;;;;;;;10.80;7.82;;;24.00;99.90;;;;;;5094332;28;20421;-51
2022/04/27 13:07:19;;;;;;;9.38;6.55;;;24.00;99.90;;;;;;5094027;28;20036;-51